createdAt,value
2023-04-23T00:01:35.485Z,14.53
2023-04-23T00:04:06.196Z,15.33
2023-04-23T00:06:33.594Z,15.97
2023-04-23T00:09:01.975Z,14.63
2023-04-23T00:11:29.479Z,16.37
2023-04-23T00:13:57.234Z,14.50
2023-04-23T00:16:24.883Z,14.77
2023-04-23T00:18:52.334Z,15.10
2023-04-23T00:21:19.505Z,15.10
2023-04-23T00:23:46.945Z,13.50
2023-04-23T00:26:14.151Z,14.47
2023-04-23T00:28:41.501Z,13.27
2023-04-23T00:31:08.684Z,14.23
2023-04-23T00:33:37.229Z,13.00
2023-04-23T00:36:04.921Z,12.93
2023-04-23T00:38:32.374Z,13.67
2023-04-23T00:40:59.643Z,14.10
2023-04-23T00:43:27.066Z,14.77
2023-04-23T00:45:54.680Z,13.43
2023-04-23T00:48:23.001Z,14.00
2023-04-23T00:50:50.559Z,14.03
2023-04-23T00:53:18.359Z,12.97
2023-04-23T00:55:45.892Z,14.17
2023-04-23T00:58:13.699Z,13.97
2023-04-23T01:00:46.789Z,13.47
2023-04-23T01:03:14.913Z,14.40
2023-04-23T01:05:43.065Z,14.63
2023-04-23T01:08:16.537Z,13.83
2023-04-23T01:10:44.817Z,14.93
2023-04-23T01:13:13.584Z,14.70
2023-04-23T01:15:41.139Z,15.60
2023-04-23T01:18:09.177Z,15.20
2023-04-23T01:20:37.688Z,15.60
2023-04-23T01:23:06.031Z,14.87
2023-04-23T01:25:33.626Z,14.70
2023-04-23T01:28:01.826Z,16.73
2023-04-23T01:30:29.986Z,14.77
2023-04-23T01:32:58.112Z,14.80
2023-04-23T01:35:26.312Z,14.17
2023-04-23T01:37:55.228Z,13.70
2023-04-23T01:40:23.278Z,13.57
2023-04-23T01:42:51.260Z,13.80
2023-04-23T01:45:19.835Z,14.70
2023-04-23T01:47:48.098Z,15.57
2023-04-23T01:50:15.911Z,15.67
2023-04-23T01:52:45.773Z,15.43
2023-04-23T01:55:14.310Z,14.53
2023-04-23T01:57:41.741Z,15.47
2023-04-23T02:00:11.689Z,14.47
2023-04-23T02:02:44.670Z,14.07
2023-04-23T02:05:14.615Z,14.27
2023-04-23T02:07:42.569Z,14.67
2023-04-23T02:10:10.582Z,14.33
2023-04-23T02:12:38.863Z,13.77
2023-04-23T02:15:10.391Z,14.77
2023-04-23T02:17:40.022Z,14.00
2023-04-23T02:20:11.299Z,15.03
2023-04-23T02:22:41.358Z,14.63
2023-04-23T02:25:09.187Z,14.90
2023-04-23T02:27:36.953Z,15.07
2023-04-23T02:30:04.785Z,15.73
2023-04-23T02:32:32.632Z,14.90
2023-04-23T02:35:02.109Z,16.77
2023-04-23T02:37:29.582Z,17.17
2023-04-23T02:39:56.672Z,16.30
2023-04-23T02:42:24.265Z,15.70
2023-04-23T02:44:51.588Z,17.50
2023-04-23T02:47:19.730Z,16.90
2023-04-23T02:49:46.926Z,17.23
2023-04-23T02:52:14.498Z,18.13
2023-04-23T02:54:41.932Z,16.70
2023-04-23T02:57:09.811Z,16.33
2023-04-23T02:59:37.433Z,17.03
2023-04-23T03:02:05.182Z,15.30
2023-04-23T03:04:32.552Z,17.03
2023-04-23T03:07:00.033Z,16.57
2023-04-23T03:09:27.683Z,15.17
2023-04-23T03:11:55.084Z,14.60
2023-04-23T03:14:22.574Z,15.13
2023-04-23T03:16:51.210Z,14.00
2023-04-23T03:19:18.451Z,13.57
2023-04-23T03:21:46.357Z,14.07
2023-04-23T03:24:15.210Z,15.97
2023-04-23T03:26:43.105Z,14.27
2023-04-23T03:29:10.899Z,13.53
2023-04-23T03:31:39.369Z,14.53
2023-04-23T03:34:09.124Z,14.70
2023-04-23T03:36:37.857Z,15.73
2023-04-23T03:39:06.050Z,15.47
2023-04-23T03:41:46.253Z,16.10
2023-04-23T03:44:16.066Z,15.83
2023-04-23T03:46:46.161Z,15.97
2023-04-23T03:49:16.825Z,15.27
2023-04-23T03:51:45.456Z,16.77
2023-04-23T03:54:13.088Z,15.77
2023-04-23T03:56:57.734Z,15.47
2023-04-23T03:59:29.166Z,16.30
2023-04-23T04:02:00.268Z,15.27
2023-04-23T04:04:28.451Z,14.87
2023-04-23T04:06:57.958Z,16.43
2023-04-23T04:09:28.653Z,14.87
2023-04-23T04:11:56.575Z,15.13
2023-04-23T04:14:24.235Z,15.63
2023-04-23T04:16:52.067Z,17.00
2023-04-23T04:19:19.606Z,15.63
2023-04-23T04:21:47.883Z,16.80
2023-04-23T04:24:15.444Z,16.70
2023-04-23T04:26:44.360Z,16.57
2023-04-23T04:29:12.109Z,15.63
2023-04-23T04:31:40.122Z,14.80
2023-04-23T04:34:09.176Z,14.67
2023-04-23T04:36:37.072Z,15.70
2023-04-23T04:39:04.973Z,14.27
2023-04-23T04:41:33.001Z,13.93
2023-04-23T04:44:00.927Z,14.20
2023-04-23T04:46:32.036Z,14.93
2023-04-23T04:48:59.822Z,14.30
2023-04-23T04:51:28.643Z,14.33
2023-04-23T04:53:56.714Z,15.83
2023-04-23T04:56:25.892Z,13.93
2023-04-23T04:58:53.656Z,13.27
2023-04-23T05:01:23.336Z,13.83
2023-04-23T05:03:51.154Z,13.57
2023-04-23T05:06:19.033Z,14.10
2023-04-23T05:08:48.329Z,13.73
2023-04-23T05:11:20.158Z,14.70
2023-04-23T05:13:48.414Z,13.93
2023-04-23T05:16:16.648Z,13.53
2023-04-23T05:18:44.258Z,13.07
2023-04-23T05:21:11.995Z,15.03
2023-04-23T05:23:39.523Z,12.90
2023-04-23T05:26:07.342Z,12.93
2023-04-23T05:28:34.980Z,13.23
2023-04-23T05:31:03.300Z,13.23
2023-04-23T05:33:39.150Z,12.50
2023-04-23T05:36:10.807Z,13.70
2023-04-23T05:38:39.168Z,13.30
2023-04-23T05:41:06.929Z,13.07
2023-04-23T05:43:34.485Z,17.23
2023-04-23T05:46:04.683Z,13.30
2023-04-23T05:48:32.273Z,15.53
2023-04-23T05:51:00.347Z,14.20
2023-04-23T05:53:28.543Z,13.53
2023-04-23T05:55:56.673Z,13.67
2023-04-23T05:58:24.499Z,13.47
2023-04-23T06:00:54.820Z,14.47
2023-04-23T06:03:22.723Z,13.43
2023-04-23T06:05:50.889Z,13.87
2023-04-23T06:08:20.379Z,13.63
2023-04-23T06:10:48.482Z,11.93
2023-04-23T06:13:16.417Z,12.93
2023-04-23T06:15:46.304Z,12.77
2023-04-23T06:18:13.481Z,12.23
2023-04-23T06:20:41.206Z,11.50
2023-04-23T06:23:08.481Z,11.73
2023-04-23T06:25:35.909Z,9.90
2023-04-23T06:28:03.095Z,10.43
2023-04-23T06:30:35.981Z,9.98
2023-04-23T06:33:03.821Z,12.60
2023-04-23T06:35:31.491Z,10.43
2023-04-23T06:37:59.347Z,11.15
2023-04-23T06:40:27.487Z,10.05
2023-04-23T06:42:55.849Z,9.70
2023-04-23T06:45:58.618Z,8.95
2023-04-23T06:48:26.733Z,9.15
2023-04-23T06:50:54.705Z,9.85
2023-04-23T06:53:22.593Z,9.20
2023-04-23T06:55:51.625Z,8.85
2023-04-23T06:58:18.839Z,9.30
2023-04-23T07:00:48.540Z,8.88
2023-04-23T07:03:16.789Z,8.98
2023-04-23T07:05:44.358Z,8.05
2023-04-23T07:08:11.947Z,9.07
2023-04-23T07:10:40.353Z,8.65
2023-04-23T07:13:07.653Z,8.40
2023-04-23T07:15:35.708Z,8.80
2023-04-23T07:18:03.707Z,8.38
2023-04-23T07:20:31.905Z,7.80
2023-04-23T07:22:59.656Z,8.05
2023-04-23T07:25:27.492Z,7.82
2023-04-23T07:27:54.879Z,9.60
2023-04-23T07:30:23.839Z,8.23
2023-04-23T07:32:51.046Z,8.55
2023-04-23T07:35:18.726Z,9.75
2023-04-23T07:37:45.796Z,8.20
2023-04-23T07:40:13.356Z,8.07
2023-04-23T07:42:40.564Z,7.90
2023-04-23T07:45:11.095Z,8.27
2023-04-23T07:47:38.306Z,7.65
2023-04-23T07:50:06.631Z,7.97
2023-04-23T07:52:33.879Z,7.13
2023-04-23T07:55:02.219Z,8.10
2023-04-23T07:57:29.533Z,7.50
2023-04-23T07:59:57.220Z,7.65
2023-04-23T08:02:26.625Z,7.25
2023-04-23T08:04:54.576Z,7.22
2023-04-23T08:07:21.920Z,6.47
2023-04-23T08:09:49.415Z,7.55
2023-04-23T08:12:17.487Z,6.82
2023-04-23T08:14:47.385Z,7.20
2023-04-23T08:17:17.417Z,5.93
2023-04-23T08:19:44.918Z,6.57
2023-04-23T08:22:13.400Z,6.57
2023-04-23T08:24:41.280Z,6.97
2023-04-23T08:27:08.395Z,6.40
2023-04-23T08:29:36.413Z,6.10
2023-04-23T08:32:04.162Z,6.75
2023-04-23T08:34:34.506Z,6.22
2023-04-23T08:37:03.162Z,6.43
2023-04-23T08:39:33.121Z,5.95
2023-04-23T08:42:10.185Z,6.30
2023-04-23T08:44:41.518Z,6.25
2023-04-23T08:47:12.515Z,6.00
2023-04-23T08:49:42.378Z,6.15
2023-04-23T08:52:17.925Z,5.47
2023-04-23T08:54:50.852Z,6.30
2023-04-23T08:57:18.882Z,5.13
2023-04-23T08:59:47.473Z,6.00
2023-04-23T09:02:16.012Z,5.60
2023-04-23T09:04:45.716Z,5.50
2023-04-23T09:07:13.311Z,5.68
2023-04-23T09:09:41.515Z,5.05
2023-04-23T09:12:09.570Z,4.35
2023-04-23T09:14:37.481Z,4.70
2023-04-23T09:17:05.047Z,3.67
2023-04-23T09:19:33.052Z,3.78
2023-04-23T09:22:03.034Z,5.13
2023-04-23T09:24:30.942Z,5.05
2023-04-23T09:26:58.790Z,3.95
2023-04-23T09:29:30.429Z,4.65
2023-04-23T09:32:08.757Z,8.05
2023-04-23T09:34:41.273Z,3.78
2023-04-23T09:37:10.344Z,7.95
2023-04-23T09:39:38.819Z,6.55
2023-04-23T09:42:11.306Z,3.97
2023-04-23T09:44:39.376Z,3.53
2023-04-23T09:47:12.254Z,3.67
2023-04-23T09:49:50.525Z,4.10
2023-04-23T09:52:18.547Z,3.83
2023-04-23T09:54:46.691Z,3.70
2023-04-23T09:57:14.054Z,4.35
2023-04-23T09:59:48.785Z,4.85
2023-04-23T10:02:20.413Z,4.07
2023-04-23T10:04:54.722Z,3.63
2023-04-23T10:07:29.923Z,3.65
2023-04-23T10:09:57.281Z,3.78
2023-04-23T10:14:57.492Z,3.40
2023-04-23T10:17:24.916Z,3.45
2023-04-23T10:19:54.371Z,3.88
2023-04-23T10:22:22.905Z,4.13
2023-04-23T10:24:56.378Z,3.10
2023-04-23T10:27:40.421Z,3.85
2023-04-23T10:30:15.850Z,3.38
2023-04-23T10:32:45.289Z,3.33
2023-04-23T10:35:12.960Z,4.30
2023-04-23T10:37:40.591Z,3.20
2023-04-23T10:40:14.667Z,2.95
2023-04-23T10:42:45.108Z,3.30
2023-04-23T10:45:23.227Z,5.30
2023-04-23T10:47:55.422Z,3.88
2023-04-23T10:50:26.584Z,3.45
2023-04-23T10:52:55.155Z,7.32
2023-04-23T10:55:30.957Z,3.40
2023-04-23T10:58:06.280Z,3.20
2023-04-23T11:00:48.586Z,3.63
2023-04-23T11:03:43.922Z,3.10
2023-04-23T11:06:39.842Z,3.35
2023-04-23T11:09:36.149Z,3.45
2023-04-23T11:12:07.403Z,3.25
2023-04-23T11:14:43.458Z,2.70
2023-04-23T11:17:16.237Z,2.30
2023-04-23T11:20:20.236Z,2.97
2023-04-23T11:22:53.068Z,2.65
2023-04-23T11:25:28.237Z,2.80
2023-04-23T11:28:00.727Z,1.98
2023-04-23T11:30:33.076Z,2.65
2023-04-23T11:33:01.444Z,2.38
2023-04-23T11:35:30.414Z,2.28
2023-04-23T11:37:57.836Z,2.60
2023-04-23T11:40:25.874Z,2.00
2023-04-23T11:42:55.278Z,2.88
2023-04-23T11:45:27.675Z,2.85
2023-04-23T11:47:57.684Z,2.50
2023-04-23T11:50:31.034Z,2.65
2023-04-23T11:53:04.251Z,2.42
2023-04-23T11:55:31.425Z,2.42
2023-04-23T11:57:58.895Z,2.70
2023-04-23T12:00:27.225Z,3.58
2023-04-23T12:02:58.551Z,3.22
2023-04-23T12:05:31.529Z,2.83
2023-04-23T12:08:11.640Z,3.47
2023-04-23T12:11:00.476Z,3.17
2023-04-23T12:13:33.830Z,2.60
2023-04-23T12:16:03.473Z,2.45
2023-04-23T12:18:33.032Z,2.13
2023-04-23T12:21:10.949Z,2.65
2023-04-23T12:23:39.921Z,2.50
2023-04-23T12:26:17.014Z,2.55
2023-04-23T12:28:48.153Z,2.90
2023-04-23T12:31:25.092Z,2.45
2023-04-23T12:34:08.406Z,2.85
2023-04-23T12:36:41.046Z,2.97
2023-04-23T12:39:27.672Z,2.42
2023-04-23T12:41:58.152Z,2.25
2023-04-23T12:44:26.517Z,2.63
2023-04-23T12:47:00.505Z,3.00
2023-04-23T12:49:29.548Z,2.60
2023-04-23T12:51:57.943Z,2.78
2023-04-23T12:54:28.073Z,2.20
2023-04-23T12:56:55.845Z,2.20
2023-04-23T12:59:23.962Z,3.63
2023-04-23T13:01:52.037Z,2.30
2023-04-23T13:04:20.352Z,2.30
2023-04-23T13:06:48.305Z,2.80
2023-04-23T13:09:15.986Z,2.38
2023-04-23T13:11:43.188Z,2.42
2023-04-23T13:14:10.734Z,2.67
2023-04-23T13:16:38.097Z,2.38
2023-04-23T13:19:05.737Z,2.15
2023-04-23T13:21:32.998Z,2.25
2023-04-23T13:24:00.640Z,2.72
2023-04-23T13:26:32.750Z,3.35
2023-04-23T13:29:01.126Z,2.25
2023-04-23T13:31:29.048Z,2.33
2023-04-23T13:33:57.558Z,2.78
2023-04-23T13:36:25.679Z,3.72
2023-04-23T13:38:53.305Z,2.63
2023-04-23T13:41:20.639Z,2.17
2023-04-23T13:43:55.535Z,3.42
2023-04-23T13:46:23.025Z,2.75
2023-04-23T13:48:50.644Z,2.97
2023-04-23T13:51:33.324Z,2.67
2023-04-23T13:54:03.267Z,2.58
2023-04-23T13:56:31.299Z,3.40
2023-04-23T14:01:38.127Z,2.78
2023-04-23T14:04:05.918Z,2.72
2023-04-23T14:06:33.338Z,3.13
2023-04-23T14:09:00.926Z,3.13
2023-04-23T14:11:28.440Z,3.13
2023-04-23T14:13:56.524Z,3.63
2023-04-23T14:16:23.858Z,3.25
2023-04-23T14:18:51.778Z,3.05
2023-04-23T14:21:18.941Z,2.80
2023-04-23T14:23:55.886Z,3.72
2023-04-23T14:26:44.832Z,3.08
2023-04-23T14:29:38.569Z,3.33
2023-04-23T14:32:09.080Z,3.90
2023-04-23T14:34:37.051Z,3.40
2023-04-23T14:37:04.581Z,3.67
2023-04-23T14:39:33.380Z,3.88
2023-04-23T14:42:01.311Z,2.88
2023-04-23T14:44:29.239Z,3.35
2023-04-23T14:46:57.027Z,4.57
2023-04-23T14:49:25.268Z,3.05
2023-04-23T14:51:57.818Z,3.53
2023-04-23T14:54:25.972Z,3.03
2023-04-23T14:56:53.200Z,3.33
2023-04-23T14:59:21.618Z,2.90
2023-04-23T15:01:48.947Z,3.00
2023-04-23T15:04:16.777Z,3.38
2023-04-23T15:06:44.534Z,2.50
2023-04-23T15:09:12.444Z,3.40
2023-04-23T15:11:41.782Z,2.63
2023-04-23T15:14:19.468Z,2.20
2023-04-23T15:16:49.228Z,2.30
2023-04-23T15:19:18.659Z,1.90
2023-04-23T15:21:47.529Z,1.98
2023-04-23T15:24:16.068Z,1.85
2023-04-23T15:26:44.296Z,3.03
2023-04-23T15:29:13.646Z,2.60
2023-04-23T15:31:42.294Z,1.98
2023-04-23T15:34:11.710Z,2.40
2023-04-23T15:36:39.525Z,2.78
2023-04-23T15:39:08.709Z,2.15
2023-04-23T15:41:39.473Z,3.08
2023-04-23T15:44:12.443Z,2.05
2023-04-23T15:46:40.775Z,2.35
2023-04-23T15:49:09.489Z,2.72
2023-04-23T15:51:37.639Z,2.40
2023-04-23T15:54:08.740Z,2.55
2023-04-23T15:56:37.241Z,2.80
2023-04-23T15:59:05.731Z,2.85
2023-04-23T16:01:33.578Z,3.40
2023-04-23T16:04:10.102Z,3.58
2023-04-23T16:06:37.922Z,3.42
2023-04-23T16:09:09.211Z,3.53
2023-04-23T16:11:38.301Z,4.38
2023-04-23T16:14:06.761Z,4.03
2023-04-23T16:16:34.898Z,3.70
2023-04-23T16:19:03.244Z,4.15
2023-04-23T16:21:32.333Z,3.63
2023-04-23T16:24:00.424Z,4.32
2023-04-23T16:26:29.406Z,4.13
2023-04-23T16:29:11.186Z,4.05
2023-04-23T16:31:45.372Z,4.00
2023-04-23T16:34:13.021Z,5.10
2023-04-23T16:36:40.805Z,4.35
2023-04-23T16:39:09.738Z,4.95
2023-04-23T16:41:37.724Z,4.85
2023-04-23T16:44:06.012Z,4.05
2023-04-23T16:46:34.165Z,4.05
2023-04-23T16:49:02.479Z,4.18
2023-04-23T16:51:29.995Z,4.20
2023-04-23T16:53:58.622Z,3.83
2023-04-23T16:56:27.207Z,4.45
2023-04-23T16:58:55.527Z,4.32
2023-04-23T17:01:23.622Z,3.38
2023-04-23T17:03:52.887Z,3.33
2023-04-23T17:06:29.546Z,3.50
2023-04-23T17:08:59.251Z,3.70
2023-04-23T17:11:27.583Z,3.58
2023-04-23T17:13:56.209Z,4.00
2023-04-23T17:16:27.651Z,3.70
2023-04-23T17:18:56.589Z,4.38
2023-04-23T17:21:24.874Z,4.68
2023-04-23T17:23:52.977Z,4.82
2023-04-23T17:26:20.672Z,4.53
2023-04-23T17:28:48.344Z,4.32
2023-04-23T17:31:16.555Z,4.82
2023-04-23T17:33:45.705Z,4.22
2023-04-23T17:36:13.978Z,5.13
2023-04-23T17:38:42.077Z,4.82
2023-04-23T17:41:09.938Z,4.40
2023-04-23T17:43:38.160Z,4.20
2023-04-23T17:46:06.161Z,4.15
2023-04-23T17:48:34.304Z,4.80
2023-04-23T17:51:02.526Z,4.45
2023-04-23T17:53:31.240Z,4.40
2023-04-23T17:56:03.133Z,4.68
2023-04-23T17:58:31.675Z,4.78
2023-04-23T18:01:00.516Z,4.38
2023-04-23T18:03:30.492Z,4.22
2023-04-23T18:05:58.712Z,3.85
2023-04-23T18:08:26.599Z,4.18
2023-04-23T18:10:54.637Z,4.60
2023-04-23T18:13:22.435Z,4.13
2023-04-23T18:15:50.892Z,4.13
2023-04-23T18:18:19.079Z,2.80
2023-04-23T18:20:47.667Z,2.60
2023-04-23T18:23:15.089Z,2.80
2023-04-23T18:25:43.263Z,2.55
2023-04-23T18:28:10.755Z,2.40
2023-04-23T18:30:38.735Z,2.10
2023-04-23T18:33:15.944Z,2.30
2023-04-23T18:35:47.182Z,2.35
2023-04-23T18:38:29.998Z,2.40
2023-04-23T18:40:59.226Z,2.65
2023-04-23T18:43:28.664Z,3.28
2023-04-23T18:45:56.634Z,2.55
2023-04-23T18:48:26.724Z,3.05
2023-04-23T18:50:57.320Z,2.70
2023-04-23T18:53:24.537Z,2.45
2023-04-23T18:55:51.705Z,3.25
2023-04-23T18:58:19.253Z,2.63
2023-04-23T19:00:47.032Z,2.97
2023-04-23T19:03:25.908Z,3.35
2023-04-23T19:05:54.650Z,3.17
2023-04-23T19:08:28.290Z,3.35
2023-04-23T19:10:56.183Z,3.25
2023-04-23T19:13:23.937Z,3.13
2023-04-23T19:15:51.719Z,3.00
2023-04-23T19:18:20.409Z,3.42
2023-04-23T19:20:48.402Z,2.63
2023-04-23T19:23:16.114Z,3.78
2023-04-23T19:25:43.620Z,3.58
2023-04-23T19:28:11.176Z,3.70
2023-04-23T19:30:38.792Z,3.72
2023-04-23T19:33:06.515Z,3.72
2023-04-23T19:35:33.910Z,3.92
2023-04-23T19:38:01.468Z,3.58
2023-04-23T19:40:28.816Z,3.47
2023-04-23T19:42:56.542Z,3.70
2023-04-23T19:45:23.931Z,4.20
2023-04-23T19:47:51.961Z,3.85
2023-04-23T19:50:20.175Z,4.60
2023-04-23T19:52:48.152Z,4.60
2023-04-23T19:55:15.933Z,4.60
2023-04-23T19:57:43.869Z,4.70
2023-04-23T20:00:14.227Z,4.57
2023-04-23T20:02:42.000Z,4.45
2023-04-23T20:05:12.845Z,4.68
2023-04-23T20:07:40.409Z,5.07
2023-04-23T20:10:08.412Z,5.72
2023-04-23T20:12:36.361Z,6.88
2023-04-23T20:15:04.065Z,7.05
2023-04-23T20:17:31.746Z,6.18
2023-04-23T20:20:06.601Z,6.03
2023-04-23T20:22:34.539Z,5.97
2023-04-23T20:25:05.421Z,6.00
2023-04-23T20:27:33.632Z,5.88
2023-04-23T20:30:01.093Z,5.85
2023-04-23T20:32:28.560Z,6.03
2023-04-23T20:34:56.347Z,5.97
2023-04-23T20:37:27.112Z,6.15
2023-04-23T20:39:55.920Z,6.97
2023-04-23T20:42:23.355Z,6.57
2023-04-23T20:44:52.124Z,6.70
2023-04-23T20:47:19.954Z,6.60
2023-04-23T20:49:47.204Z,6.47
2023-04-23T20:52:15.425Z,6.60
2023-04-23T20:54:42.755Z,6.97
2023-04-23T20:57:10.752Z,6.43
2023-04-23T20:59:37.826Z,6.93
2023-04-23T21:02:07.389Z,17.03
2023-04-23T21:04:34.977Z,18.00
2023-04-23T21:07:02.666Z,11.38
2023-04-23T21:09:30.028Z,8.90
2023-04-23T21:11:57.567Z,8.80
2023-04-23T21:14:25.782Z,9.83
2023-04-23T21:16:56.355Z,12.10
2023-04-23T21:19:26.227Z,21.10
2023-04-23T21:21:53.619Z,19.43
2023-04-23T21:24:20.799Z,22.27
2023-04-23T21:26:48.305Z,18.10
2023-04-23T21:29:15.427Z,13.53
2023-04-23T21:31:46.226Z,12.23
2023-04-23T21:34:16.725Z,10.82
2023-04-23T21:36:46.853Z,12.17
2023-04-23T21:39:14.028Z,11.27
2023-04-23T21:41:41.644Z,11.00
2023-04-23T21:44:09.217Z,10.10
2023-04-23T21:46:36.707Z,10.02
2023-04-23T21:49:04.090Z,9.30
2023-04-23T21:51:37.062Z,10.40
2023-04-23T21:54:05.990Z,10.90
2023-04-23T21:56:34.093Z,9.33
2023-04-23T21:59:01.407Z,9.33
2023-04-23T22:01:28.867Z,9.87
2023-04-23T22:03:56.209Z,8.97
2023-04-23T22:06:23.584Z,9.23
2023-04-23T22:08:52.400Z,9.23
2023-04-23T22:11:20.347Z,10.00
2023-04-23T22:13:47.451Z,10.23
2023-04-23T22:16:27.599Z,9.90
2023-04-23T22:18:57.718Z,9.33
2023-04-23T22:21:25.508Z,9.47
2023-04-23T22:23:52.684Z,10.57
2023-04-23T22:26:20.146Z,11.23
2023-04-23T22:28:47.531Z,10.10
2023-04-23T22:31:14.902Z,10.70
2023-04-23T22:33:41.943Z,11.33
2023-04-23T22:36:09.289Z,11.80
2023-04-23T22:38:36.378Z,11.20
2023-04-23T22:41:04.152Z,10.77
2023-04-23T22:43:31.289Z,10.37
2023-04-23T22:45:58.775Z,10.47
2023-04-23T22:48:25.888Z,14.73
2023-04-23T22:50:53.435Z,11.67
2023-04-23T22:53:20.450Z,10.90
2023-04-23T22:55:49.468Z,11.03
2023-04-23T22:58:16.784Z,10.93
2023-04-23T23:00:44.280Z,10.03
2023-04-23T23:03:11.950Z,11.13
2023-04-23T23:05:39.351Z,10.20
2023-04-23T23:08:06.816Z,11.63
2023-04-23T23:10:34.167Z,11.47
2023-04-23T23:13:01.369Z,11.43
2023-04-23T23:15:28.728Z,11.73
2023-04-23T23:17:55.951Z,12.70
2023-04-23T23:20:23.673Z,11.85
2023-04-23T23:22:50.835Z,12.13
2023-04-23T23:25:18.107Z,12.75
2023-04-23T23:27:45.159Z,12.35
2023-04-23T23:30:12.550Z,12.00
2023-04-23T23:32:39.856Z,12.30
2023-04-23T23:35:08.251Z,11.93
2023-04-23T23:37:35.686Z,11.17
2023-04-23T23:40:05.572Z,11.60
2023-04-23T23:42:32.671Z,12.03
2023-04-23T23:44:59.997Z,12.13
2023-04-23T23:47:27.218Z,12.70
2023-04-23T23:49:54.622Z,12.90
2023-04-23T23:52:21.669Z,12.93
2023-04-23T23:54:48.962Z,13.40
2023-04-23T23:57:16.031Z,13.77
2023-04-23T23:59:43.838Z,14.00
